EDW79 FIMP-FSIA
Flight info
| Callsign | EDW79 |
|---|---|
| Flight time | N/A |
| Altitude | 39000 |
| Route | DURDA1A DURDA UT401 IBSON/N0482F410 UT401 ALRAN UM313 RERUS/N0482F400 DCT IMPOX IMPOX1R |
| Aircraft | A359/H-SDE2E3GHIJ3J4J5LM1ORWXY/LB1D1 |
Departure
| Time | 2026-04-30 20:32 |
|---|---|
| Airport | Sir Seewoosagur Ramgoolam International Airport (FIMP) |
Arrival
| Time | N/A |
|---|---|
| Airport | Seychelles International Airport (FSIA) |
| Time | Latitude | Longitude | Altitude | Speed | Heading |
|---|---|---|---|---|---|
| 2026-04-30 19:57 | -20.43119 | 57.67774 | 200 ft | 0 kts | 207° |
| 2026-04-30 20:07 | -20.43133 | 57.67766 | 201 ft | 0 kts | 207° |
| 2026-04-30 20:08 | -20.43212 | 57.67905 | 203 ft | 0 kts | 225° |
| 2026-04-30 20:21 | -20.43212 | 57.67906 | 203 ft | 0 kts | 225° |
| 2026-04-30 20:21 | -20.43196 | 57.67922 | 202 ft | 4 kts | 225° |
| 2026-04-30 20:21 | -20.43177 | 57.67942 | 208 ft | 4 kts | 225° |
| 2026-04-30 20:22 | -20.43160 | 57.67959 | 207 ft | 4 kts | 233° |
| 2026-04-30 20:22 | -20.43152 | 57.67982 | 198 ft | 4 kts | 285° |
| 2026-04-30 20:22 | -20.43165 | 57.68005 | 207 ft | 4 kts | 317° |
| 2026-04-30 20:22 | -20.43174 | 57.68013 | 202 ft | 0 kts | 319° |
| 2026-04-30 20:26 | -20.43137 | 57.67975 | 207 ft | 12 kts | 312° |
| 2026-04-30 20:26 | -20.43076 | 57.67885 | 202 ft | 16 kts | 301° |
| 2026-04-30 20:27 | -20.42989 | 57.67701 | 203 ft | 11 kts | 297° |
| 2026-04-30 20:27 | -20.42976 | 57.67677 | 207 ft | 1 kts | 306° |
| 2026-04-30 20:28 | -20.42906 | 57.67625 | 200 ft | 12 kts | 330° |
| 2026-04-30 20:28 | -20.42802 | 57.67550 | 205 ft | 0 kts | 322° |
| 2026-04-30 20:29 | -20.42759 | 57.67513 | 203 ft | 10 kts | 322° |
| 2026-04-30 20:30 | -20.42616 | 57.67469 | 212 ft | 2 kts | 45° |
| 2026-04-30 20:30 | -20.42621 | 57.67515 | 210 ft | 0 kts | 113° |
| 2026-04-30 20:31 | -20.42699 | 57.67689 | 204 ft | 62 kts | 117° |
| 2026-04-30 20:32 | -20.43782 | 57.70471 | 1154 ft | 163 kts | 91° |
| 2026-04-30 20:32 | -20.42173 | 57.72416 | 1955 ft | 221 kts | 14° |
| 2026-04-30 20:33 | -20.40558 | 57.72203 | 2244 ft | 252 kts | 337° |
| 2026-04-30 20:33 | -20.37341 | 57.70387 | 3587 ft | 268 kts | 333° |
| 2026-04-30 20:33 | -20.35661 | 57.69498 | 4389 ft | 269 kts | 334° |
| 2026-04-30 20:34 | -20.32816 | 57.68083 | 5698 ft | 273 kts | 335° |
| 2026-04-30 20:34 | -20.28762 | 57.66144 | 7437 ft | 275 kts | 336° |
| 2026-04-30 20:35 | -20.26994 | 57.65308 | 8126 ft | 282 kts | 336° |
| 2026-04-30 20:35 | -20.25777 | 57.64734 | 8715 ft | 281 kts | 335° |
| 2026-04-30 20:35 | -20.22214 | 57.63057 | 10408 ft | 285 kts | 334° |
| 2026-04-30 20:36 | -20.20379 | 57.62193 | 11088 ft | 290 kts | 335° |
| 2026-04-30 20:36 | -20.18516 | 57.61317 | 11790 ft | 295 kts | 334° |
| 2026-04-30 20:36 | -20.14584 | 57.59718 | 12910 ft | 317 kts | 340° |
| 2026-04-30 20:37 | -20.12435 | 57.58948 | 13235 ft | 334 kts | 340° |
| 2026-04-30 20:37 | -20.10172 | 57.58140 | 13551 ft | 351 kts | 340° |
| 2026-04-30 20:37 | -20.07811 | 57.57296 | 13845 ft | 366 kts | 340° |
| 2026-04-30 20:37 | -20.05357 | 57.56418 | 14139 ft | 377 kts | 340° |
| 2026-04-30 20:38 | -20.02853 | 57.55522 | 14568 ft | 382 kts | 340° |
| 2026-04-30 20:38 | -20.00317 | 57.54615 | 15057 ft | 386 kts | 340° |
| 2026-04-30 20:38 | -19.97756 | 57.53698 | 15542 ft | 390 kts | 340° |
| 2026-04-30 20:39 | -19.92563 | 57.51838 | 16533 ft | 397 kts | 340° |
| 2026-04-30 20:39 | -19.89932 | 57.50896 | 17043 ft | 401 kts | 339° |
| 2026-04-30 20:39 | -19.87295 | 57.49882 | 17526 ft | 404 kts | 335° |
| 2026-04-30 20:40 | -19.82174 | 57.47315 | 18491 ft | 409 kts | 332° |
| 2026-04-30 20:40 | -19.79605 | 57.45981 | 18912 ft | 413 kts | 332° |
| 2026-04-30 20:40 | -19.77041 | 57.44653 | 19293 ft | 417 kts | 332° |
| 2026-04-30 20:41 | -19.71768 | 57.41928 | 20172 ft | 424 kts | 332° |
| 2026-04-30 20:41 | -19.69101 | 57.40552 | 20662 ft | 427 kts | 332° |
| 2026-04-30 20:41 | -19.66421 | 57.39171 | 21149 ft | 430 kts | 332° |
| 2026-04-30 20:41 | -19.63717 | 57.37777 | 21637 ft | 433 kts | 332° |
| 2026-04-30 20:42 | -19.60992 | 57.36373 | 22115 ft | 437 kts | 332° |
| 2026-04-30 20:42 | -19.58247 | 57.34960 | 22609 ft | 440 kts | 332° |
| 2026-04-30 20:42 | -19.52699 | 57.32105 | 23611 ft | 446 kts | 332° |
| 2026-04-30 20:43 | -19.49895 | 57.30664 | 24041 ft | 449 kts | 332° |
| 2026-04-30 20:43 | -19.47079 | 57.29216 | 24516 ft | 451 kts | 332° |
| 2026-04-30 20:43 | -19.44256 | 57.27766 | 25025 ft | 451 kts | 332° |
| 2026-04-30 20:44 | -19.38618 | 57.24871 | 25984 ft | 456 kts | 332° |
| 2026-04-30 20:44 | -19.35749 | 57.23398 | 26438 ft | 459 kts | 332° |
| 2026-04-30 20:44 | -19.29960 | 57.20429 | 27367 ft | 464 kts | 332° |
| 2026-04-30 20:45 | -19.24111 | 57.17433 | 28267 ft | 470 kts | 331° |
| 2026-04-30 20:45 | -19.21152 | 57.15916 | 28711 ft | 473 kts | 331° |
| 2026-04-30 20:45 | -19.18183 | 57.14396 | 29149 ft | 475 kts | 331° |
| 2026-04-30 20:46 | -19.09182 | 57.09791 | 30372 ft | 482 kts | 332° |
| 2026-04-30 20:46 | -19.06153 | 57.08243 | 30716 ft | 485 kts | 332° |
| 2026-04-30 20:47 | -19.00053 | 57.05127 | 31388 ft | 489 kts | 332° |
| 2026-04-30 20:47 | -18.96973 | 57.03555 | 31746 ft | 491 kts | 332° |
| 2026-04-30 20:48 | -18.90791 | 57.00401 | 32393 ft | 495 kts | 332° |
| 2026-04-30 20:48 | -18.87681 | 56.98816 | 32725 ft | 497 kts | 332° |
| 2026-04-30 20:48 | -18.84601 | 56.97246 | 33031 ft | 499 kts | 332° |
| 2026-04-30 20:48 | -18.81463 | 56.95647 | 33316 ft | 501 kts | 332° |
| 2026-04-30 20:49 | -18.78316 | 56.94045 | 33592 ft | 503 kts | 332° |
| 2026-04-30 20:49 | -18.75163 | 56.92440 | 33867 ft | 505 kts | 332° |
| 2026-04-30 20:49 | -18.71989 | 56.90825 | 34117 ft | 507 kts | 332° |
| 2026-04-30 20:50 | -18.65627 | 56.87591 | 34727 ft | 506 kts | 332° |
| 2026-04-30 20:50 | -18.62467 | 56.85986 | 35132 ft | 503 kts | 332° |
| 2026-04-30 20:50 | -18.59321 | 56.84388 | 35527 ft | 500 kts | 332° |
| 2026-04-30 20:50 | -18.56193 | 56.82800 | 35900 ft | 497 kts | 332° |
| 2026-04-30 20:51 | -18.53080 | 56.81220 | 36251 ft | 495 kts | 332° |
| 2026-04-30 20:51 | -18.46922 | 56.78096 | 36912 ft | 492 kts | 332° |
| 2026-04-30 20:51 | -18.43844 | 56.76536 | 37254 ft | 490 kts | 332° |
| 2026-04-30 20:52 | -18.40770 | 56.74978 | 37569 ft | 489 kts | 332° |
| 2026-04-30 20:52 | -18.37717 | 56.73432 | 37889 ft | 487 kts | 332° |
| 2026-04-30 20:52 | -18.31627 | 56.70349 | 38505 ft | 484 kts | 332° |
| 2026-04-30 20:53 | -18.28604 | 56.68820 | 38781 ft | 482 kts | 332° |
| 2026-04-30 20:53 | -18.25582 | 56.67291 | 38971 ft | 481 kts | 332° |
| 2026-04-30 20:53 | -18.22558 | 56.65762 | 39138 ft | 481 kts | 332° |
| 2026-04-30 20:54 | -18.16507 | 56.62705 | 39477 ft | 481 kts | 332° |
| 2026-04-30 20:54 | -18.13495 | 56.61184 | 39653 ft | 481 kts | 332° |
| 2026-04-30 20:54 | -18.10458 | 56.59807 | 39792 ft | 482 kts | 338° |
| 2026-04-30 20:55 | -18.03871 | 56.58348 | 40096 ft | 486 kts | 351° |
| 2026-04-30 20:55 | -18.00511 | 56.57982 | 40240 ft | 486 kts | 352° |
| 2026-04-30 20:55 | -17.97145 | 56.57676 | 40384 ft | 486 kts | 353° |
| 2026-04-30 20:56 | -17.90409 | 56.57102 | 40660 ft | 485 kts | 353° |
| 2026-04-30 20:56 | -17.87046 | 56.56807 | 40784 ft | 485 kts | 353° |
| 2026-04-30 20:56 | -17.80304 | 56.56189 | 40996 ft | 486 kts | 353° |
| 2026-04-30 20:57 | -17.76936 | 56.55872 | 41021 ft | 487 kts | 353° |
| 2026-04-30 20:57 | -17.70185 | 56.55233 | 41020 ft | 487 kts | 353° |
| 2026-04-30 20:58 | -17.60105 | 56.54280 | 41025 ft | 487 kts | 353° |
| 2026-04-30 20:58 | -17.53362 | 56.53645 | 41012 ft | 487 kts | 353° |
| 2026-04-30 20:59 | -17.43221 | 56.52691 | 41018 ft | 487 kts | 353° |
| 2026-04-30 21:00 | -17.29708 | 56.51421 | 41026 ft | 487 kts | 353° |
| 2026-04-30 21:01 | -17.19613 | 56.50473 | 41016 ft | 488 kts | 353° |
| 2026-04-30 21:02 | -17.09467 | 56.49522 | 41015 ft | 488 kts | 353° |
| 2026-04-30 21:02 | -17.02732 | 56.48891 | 41021 ft | 488 kts | 353° |
| 2026-04-30 21:03 | -16.95965 | 56.48257 | 41015 ft | 488 kts | 353° |
| 2026-04-30 21:03 | -16.89193 | 56.47624 | 41012 ft | 488 kts | 353° |
| 2026-04-30 21:04 | -16.82420 | 56.46992 | 41019 ft | 488 kts | 353° |
| 2026-04-30 21:04 | -16.72291 | 56.46046 | 41013 ft | 488 kts | 353° |
| 2026-04-30 21:05 | -16.65508 | 56.45413 | 41015 ft | 489 kts | 353° |
| 2026-04-30 21:05 | -16.58719 | 56.44779 | 41004 ft | 490 kts | 353° |
| 2026-04-30 21:06 | -16.51921 | 56.44146 | 41011 ft | 490 kts | 353° |
| 2026-04-30 21:06 | -16.45130 | 56.43515 | 41012 ft | 490 kts | 353° |
| 2026-04-30 21:07 | -16.38338 | 56.42881 | 41006 ft | 490 kts | 353° |
| 2026-04-30 21:07 | -16.31540 | 56.42247 | 41006 ft | 491 kts | 354° |
| 2026-04-30 21:08 | -16.24781 | 56.41621 | 41006 ft | 491 kts | 354° |
| 2026-04-30 21:08 | -16.17966 | 56.40989 | 40998 ft | 491 kts | 354° |
| 2026-04-30 21:09 | -16.11151 | 56.40357 | 41009 ft | 491 kts | 353° |
| 2026-04-30 21:09 | -16.04337 | 56.39725 | 41005 ft | 491 kts | 354° |
| 2026-04-30 21:10 | -15.97570 | 56.39099 | 41005 ft | 491 kts | 354° |
| 2026-04-30 21:10 | -15.90757 | 56.38468 | 41006 ft | 491 kts | 354° |
| 2026-04-30 21:11 | -15.83937 | 56.37835 | 41002 ft | 491 kts | 354° |
| 2026-04-30 21:11 | -15.77128 | 56.37206 | 41008 ft | 491 kts | 354° |
| 2026-04-30 21:12 | -15.70362 | 56.36581 | 41008 ft | 491 kts | 354° |
| 2026-04-30 21:12 | -15.63553 | 56.35952 | 40999 ft | 491 kts | 354° |
| 2026-04-30 21:13 | -15.56745 | 56.35324 | 40994 ft | 491 kts | 354° |
| 2026-04-30 21:13 | -15.49926 | 56.34695 | 40992 ft | 491 kts | 355° |
| 2026-04-30 21:14 | -15.43120 | 56.34068 | 40995 ft | 491 kts | 355° |
| 2026-04-30 21:14 | -15.36310 | 56.33441 | 41002 ft | 491 kts | 355° |
| 2026-04-30 21:15 | -15.29502 | 56.32814 | 40994 ft | 492 kts | 355° |
| 2026-04-30 21:15 | -15.22732 | 56.32192 | 40991 ft | 491 kts | 355° |
| 2026-04-30 21:16 | -15.15923 | 56.31567 | 40993 ft | 491 kts | 355° |
| 2026-04-30 21:16 | -15.09114 | 56.30941 | 40997 ft | 491 kts | 355° |
| 2026-04-30 21:17 | -15.02307 | 56.30315 | 40997 ft | 491 kts | 355° |
| 2026-04-30 21:17 | -14.95494 | 56.29690 | 40989 ft | 491 kts | 355° |
| 2026-04-30 21:18 | -14.88683 | 56.29066 | 40986 ft | 491 kts | 355° |
| 2026-04-30 21:18 | -14.81867 | 56.28441 | 40984 ft | 492 kts | 355° |
| 2026-04-30 21:19 | -14.75044 | 56.27817 | 40987 ft | 492 kts | 355° |
| 2026-04-30 21:19 | -14.68266 | 56.27197 | 40979 ft | 492 kts | 355° |
| 2026-04-30 21:20 | -14.61441 | 56.26573 | 40982 ft | 492 kts | 355° |
| 2026-04-30 21:20 | -14.54619 | 56.25949 | 40988 ft | 492 kts | 355° |
| 2026-04-30 21:21 | -14.47798 | 56.25327 | 40980 ft | 492 kts | 355° |
| 2026-04-30 21:22 | -14.38714 | 56.24498 | 40978 ft | 492 kts | 355° |
| 2026-04-30 21:23 | -14.25085 | 56.23255 | 40987 ft | 491 kts | 355° |
| 2026-04-30 21:23 | -14.14880 | 56.22326 | 40978 ft | 490 kts | 355° |
| 2026-04-30 21:24 | -14.08128 | 56.21711 | 40978 ft | 490 kts | 355° |
| 2026-04-30 21:24 | -14.01333 | 56.21093 | 40976 ft | 490 kts | 355° |
| 2026-04-30 21:25 | -13.91144 | 56.20167 | 40973 ft | 489 kts | 355° |
| 2026-04-30 21:26 | -13.80957 | 56.19242 | 40973 ft | 489 kts | 355° |
| 2026-04-30 21:27 | -13.70820 | 56.18323 | 40971 ft | 489 kts | 355° |
| 2026-04-30 21:27 | -13.64036 | 56.17707 | 40965 ft | 488 kts | 355° |
| 2026-04-30 21:28 | -13.53876 | 56.16787 | 40970 ft | 488 kts | 355° |
| 2026-04-30 21:29 | -13.43773 | 56.15872 | 40969 ft | 487 kts | 356° |
| 2026-04-30 21:30 | -13.26888 | 56.14346 | 40962 ft | 485 kts | 355° |
| 2026-04-30 21:31 | -13.10049 | 56.12825 | 40965 ft | 485 kts | 356° |
| 2026-04-30 21:32 | -13.00018 | 56.11920 | 40956 ft | 483 kts | 356° |
| 2026-04-30 21:32 | -12.93306 | 56.11317 | 40962 ft | 483 kts | 356° |
| 2026-04-30 21:33 | -12.83261 | 56.10411 | 40959 ft | 483 kts | 356° |
| 2026-04-30 21:34 | -12.76555 | 56.09807 | 40961 ft | 483 kts | 356° |
| 2026-04-30 21:34 | -12.66557 | 56.08908 | 40952 ft | 482 kts | 356° |
| 2026-04-30 21:35 | -12.59874 | 56.08308 | 40958 ft | 482 kts | 356° |
| 2026-04-30 21:35 | -12.53189 | 56.07707 | 40952 ft | 482 kts | 356° |
| 2026-04-30 21:36 | -12.46502 | 56.07106 | 40958 ft | 482 kts | 356° |
| 2026-04-30 21:37 | -12.33174 | 56.05912 | 40941 ft | 482 kts | 356° |
| 2026-04-30 21:37 | -12.26497 | 56.05312 | 40949 ft | 481 kts | 357° |
| 2026-04-30 21:38 | -12.19819 | 56.04713 | 40948 ft | 482 kts | 356° |
| 2026-04-30 21:38 | -12.13129 | 56.04173 | 40941 ft | 481 kts | 0° |
| 2026-04-30 21:39 | -12.06528 | 56.04705 | 40941 ft | 479 kts | 9° |
| 2026-04-30 21:39 | -11.99938 | 56.05701 | 40940 ft | 479 kts | 10° |
| 2026-04-30 21:40 | -11.93355 | 56.06775 | 40944 ft | 479 kts | 10° |
| 2026-04-30 21:40 | -11.86773 | 56.07839 | 40950 ft | 479 kts | 10° |
| 2026-04-30 21:41 | -11.80184 | 56.08890 | 40941 ft | 479 kts | 10° |
| 2026-04-30 21:41 | -11.73594 | 56.09935 | 40943 ft | 479 kts | 10° |
| 2026-04-30 21:42 | -11.67044 | 56.10971 | 40939 ft | 479 kts | 10° |
| 2026-04-30 21:42 | -11.60444 | 56.12014 | 40944 ft | 479 kts | 10° |
| 2026-04-30 21:43 | -11.53849 | 56.13056 | 40941 ft | 478 kts | 10° |
| 2026-04-30 21:43 | -11.47290 | 56.14093 | 40941 ft | 476 kts | 10° |
| 2026-04-30 21:44 | -11.40742 | 56.15128 | 40932 ft | 476 kts | 10° |
| 2026-04-30 21:44 | -11.34199 | 56.16160 | 40938 ft | 476 kts | 10° |
| 2026-04-30 21:45 | -11.27698 | 56.17185 | 40935 ft | 476 kts | 10° |
| 2026-04-30 21:45 | -11.21148 | 56.18218 | 40940 ft | 475 kts | 10° |
| 2026-04-30 21:46 | -11.14620 | 56.19248 | 40945 ft | 475 kts | 10° |
| 2026-04-30 21:46 | -11.08089 | 56.20278 | 40944 ft | 474 kts | 10° |
| 2026-04-30 21:47 | -11.01561 | 56.21305 | 40924 ft | 474 kts | 10° |
| 2026-04-30 21:47 | -10.95078 | 56.22326 | 40937 ft | 475 kts | 10° |
| 2026-04-30 21:48 | -10.88542 | 56.23356 | 40936 ft | 474 kts | 10° |
| 2026-04-30 21:48 | -10.82011 | 56.24383 | 40936 ft | 474 kts | 10° |
| 2026-04-30 21:49 | -10.75485 | 56.25410 | 40925 ft | 474 kts | 10° |
| 2026-04-30 21:49 | -10.68996 | 56.26430 | 40933 ft | 474 kts | 10° |
| 2026-04-30 21:50 | -10.62468 | 56.27456 | 40935 ft | 475 kts | 10° |
| 2026-04-30 21:50 | -10.55915 | 56.28485 | 40930 ft | 476 kts | 10° |
| 2026-04-30 21:51 | -10.49365 | 56.29514 | 40923 ft | 476 kts | 10° |
| 2026-04-30 21:51 | -10.42806 | 56.30542 | 40928 ft | 476 kts | 10° |
| 2026-04-30 21:52 | -10.36297 | 56.31564 | 40928 ft | 475 kts | 10° |
| 2026-04-30 21:52 | -10.29754 | 56.32590 | 40923 ft | 475 kts | 10° |
| 2026-04-30 21:53 | -10.23217 | 56.33614 | 40924 ft | 475 kts | 10° |
| 2026-04-30 21:53 | -10.16713 | 56.34633 | 40924 ft | 475 kts | 10° |
| 2026-04-30 21:54 | -10.10181 | 56.35656 | 40921 ft | 475 kts | 10° |
| 2026-04-30 21:54 | -10.03640 | 56.36677 | 40925 ft | 474 kts | 11° |
| 2026-04-30 21:55 | -9.97031 | 56.36848 | 40926 ft | 477 kts | 357° |
| 2026-04-30 21:55 | -9.90416 | 56.36183 | 40926 ft | 478 kts | 355° |
| 2026-04-30 21:56 | -9.83809 | 56.35376 | 40926 ft | 478 kts | 355° |
| 2026-04-30 21:56 | -9.77243 | 56.34569 | 40924 ft | 478 kts | 355° |
| 2026-04-30 21:57 | -9.70622 | 56.33775 | 40925 ft | 478 kts | 355° |
| 2026-04-30 21:57 | -9.64020 | 56.32994 | 40920 ft | 478 kts | 355° |
| 2026-04-30 21:58 | -9.57408 | 56.32215 | 40921 ft | 478 kts | 355° |
| 2026-04-30 21:58 | -9.50845 | 56.31440 | 40923 ft | 477 kts | 355° |
| 2026-04-30 21:59 | -9.44244 | 56.30661 | 40931 ft | 477 kts | 355° |
| 2026-04-30 22:00 | -9.34348 | 56.29494 | 40925 ft | 476 kts | 355° |
| 2026-04-30 22:00 | -9.24469 | 56.28329 | 40926 ft | 476 kts | 355° |
| 2026-04-30 22:01 | -9.17934 | 56.27559 | 40923 ft | 476 kts | 355° |
| 2026-04-30 22:01 | -9.11346 | 56.26783 | 40923 ft | 476 kts | 355° |
| 2026-04-30 22:02 | -9.04755 | 56.26006 | 40920 ft | 476 kts | 355° |
| 2026-04-30 22:02 | -8.98179 | 56.25232 | 40921 ft | 476 kts | 355° |
| 2026-04-30 22:03 | -8.91599 | 56.24457 | 40920 ft | 476 kts | 355° |
| 2026-04-30 22:03 | -8.85060 | 56.23688 | 40918 ft | 476 kts | 355° |
| 2026-04-30 22:04 | -8.78476 | 56.22914 | 40918 ft | 475 kts | 355° |
| 2026-04-30 22:05 | -8.68623 | 56.21755 | 40918 ft | 475 kts | 355° |
| 2026-04-30 22:05 | -8.62046 | 56.20982 | 40918 ft | 475 kts | 355° |
| 2026-04-30 22:06 | -8.55474 | 56.20210 | 40920 ft | 475 kts | 355° |
| 2026-04-30 22:06 | -8.45659 | 56.19058 | 40921 ft | 476 kts | 355° |
| 2026-04-30 22:07 | -8.39069 | 56.18285 | 40921 ft | 476 kts | 355° |
| 2026-04-30 22:07 | -8.32490 | 56.17513 | 40921 ft | 476 kts | 355° |
| 2026-04-30 22:08 | -8.25899 | 56.16740 | 40918 ft | 476 kts | 355° |
| 2026-04-30 22:08 | -8.19351 | 56.15972 | 40920 ft | 476 kts | 355° |
| 2026-04-30 22:09 | -8.12751 | 56.15199 | 40924 ft | 479 kts | 355° |
| 2026-04-30 22:09 | -8.06120 | 56.14422 | 40923 ft | 480 kts | 355° |
| 2026-04-30 22:10 | -8.00596 | 56.13775 | 40922 ft | 480 kts | 355° |
| 2026-04-30 22:10 | -7.93955 | 56.12997 | 40920 ft | 480 kts | 355° |
| 2026-04-30 22:11 | -7.83990 | 56.11830 | 40921 ft | 481 kts | 355° |
| 2026-04-30 22:12 | -7.77328 | 56.11051 | 40917 ft | 482 kts | 355° |
| 2026-04-30 22:12 | -7.70699 | 56.10276 | 40917 ft | 482 kts | 355° |
| 2026-04-30 22:13 | -7.64035 | 56.09424 | 40912 ft | 483 kts | 349° |
| 2026-04-30 22:13 | -7.57561 | 56.07527 | 40916 ft | 485 kts | 344° |
| 2026-04-30 22:14 | -7.51129 | 56.05451 | 40914 ft | 486 kts | 344° |
| 2026-04-30 22:14 | -7.44691 | 56.03358 | 40915 ft | 486 kts | 344° |
| 2026-04-30 22:15 | -7.38283 | 56.01273 | 40916 ft | 486 kts | 344° |
| 2026-04-30 22:15 | -7.31832 | 55.99174 | 40917 ft | 486 kts | 344° |
| 2026-04-30 22:16 | -7.25389 | 55.97077 | 40913 ft | 486 kts | 344° |
| 2026-04-30 22:17 | -7.12501 | 55.92886 | 40912 ft | 486 kts | 344° |
| 2026-04-30 22:17 | -7.02875 | 55.89756 | 40912 ft | 486 kts | 344° |
| 2026-04-30 22:18 | -6.93216 | 55.86618 | 40911 ft | 486 kts | 344° |
| 2026-04-30 22:19 | -6.83607 | 55.83497 | 40911 ft | 485 kts | 345° |
| 2026-04-30 22:20 | -6.73960 | 55.80365 | 40909 ft | 485 kts | 345° |
| 2026-04-30 22:20 | -6.64323 | 55.77238 | 40906 ft | 485 kts | 345° |
| 2026-04-30 22:21 | -6.57897 | 55.75153 | 40905 ft | 485 kts | 345° |
| 2026-04-30 22:21 | -6.51464 | 55.73067 | 40905 ft | 486 kts | 345° |
| 2026-04-30 22:22 | -6.45043 | 55.70985 | 40580 ft | 482 kts | 345° |
| 2026-04-30 22:22 | -6.41842 | 55.69947 | 39856 ft | 484 kts | 345° |
| 2026-04-30 22:22 | -6.38671 | 55.68920 | 39112 ft | 487 kts | 344° |
| 2026-04-30 22:23 | -6.35429 | 55.67870 | 38341 ft | 489 kts | 344° |
| 2026-04-30 22:23 | -6.32181 | 55.66817 | 37435 ft | 493 kts | 344° |
| 2026-04-30 22:23 | -6.28900 | 55.65755 | 36574 ft | 496 kts | 344° |
| 2026-04-30 22:23 | -6.25609 | 55.64688 | 35852 ft | 496 kts | 343° |
| 2026-04-30 22:24 | -6.22318 | 55.63622 | 35148 ft | 496 kts | 343° |
| 2026-04-30 22:24 | -6.19027 | 55.62556 | 34371 ft | 499 kts | 343° |
| 2026-04-30 22:24 | -6.15710 | 55.61482 | 33671 ft | 499 kts | 343° |
| 2026-04-30 22:24 | -6.12461 | 55.60429 | 33117 ft | 495 kts | 343° |
| 2026-04-30 22:25 | -6.09194 | 55.59371 | 32545 ft | 491 kts | 343° |
| 2026-04-30 22:25 | -6.05954 | 55.58322 | 31996 ft | 487 kts | 343° |
| 2026-04-30 22:25 | -6.02742 | 55.57282 | 31444 ft | 484 kts | 343° |
| 2026-04-30 22:25 | -5.99923 | 55.56370 | 30963 ft | 481 kts | 343° |
| 2026-04-30 22:26 | -5.93584 | 55.54319 | 29868 ft | 476 kts | 343° |
| 2026-04-30 22:26 | -5.90435 | 55.53300 | 29271 ft | 472 kts | 343° |
| 2026-04-30 22:26 | -5.87316 | 55.52291 | 28745 ft | 468 kts | 343° |
| 2026-04-30 22:27 | -5.84264 | 55.51304 | 28221 ft | 463 kts | 343° |
| 2026-04-30 22:27 | -5.81210 | 55.50317 | 27702 ft | 459 kts | 343° |
| 2026-04-30 22:27 | -5.75182 | 55.48367 | 26668 ft | 451 kts | 343° |
| 2026-04-30 22:28 | -5.69240 | 55.46446 | 25633 ft | 445 kts | 343° |
| 2026-04-30 22:28 | -5.66299 | 55.45496 | 25116 ft | 442 kts | 343° |
| 2026-04-30 22:29 | -5.57596 | 55.42684 | 23559 ft | 434 kts | 342° |
| 2026-04-30 22:29 | -5.54730 | 55.41758 | 22986 ft | 431 kts | 342° |
| 2026-04-30 22:30 | -5.43557 | 55.38148 | 20915 ft | 414 kts | 342° |
| 2026-04-30 22:31 | -5.35415 | 55.35519 | 19410 ft | 404 kts | 343° |
| 2026-04-30 22:32 | -5.27492 | 55.32961 | 17919 ft | 395 kts | 343° |
| 2026-04-30 22:32 | -5.22314 | 55.31290 | 16957 ft | 386 kts | 343° |
| 2026-04-30 22:33 | -5.14762 | 55.28854 | 15521 ft | 374 kts | 343° |
| 2026-04-30 22:33 | -5.09774 | 55.27777 | 14464 ft | 368 kts | 1° |
| 2026-04-30 22:34 | -5.02157 | 55.28060 | 12930 ft | 359 kts | 4° |
| 2026-04-30 22:35 | -4.97228 | 55.28263 | 12030 ft | 349 kts | 3° |
| 2026-04-30 22:36 | -4.87893 | 55.28627 | 10856 ft | 313 kts | 3° |
| 2026-04-30 22:36 | -4.85755 | 55.28709 | 10730 ft | 301 kts | 3° |
| 2026-04-30 22:37 | -4.79751 | 55.28942 | 10006 ft | 282 kts | 3° |
| 2026-04-30 22:37 | -4.77763 | 55.29019 | 9746 ft | 294 kts | 3° |
| 2026-04-30 22:37 | -4.73600 | 55.29180 | 9211 ft | 299 kts | 3° |
| 2026-04-30 22:38 | -4.69452 | 55.29339 | 8416 ft | 297 kts | 2° |
| 2026-04-30 22:38 | -4.65349 | 55.29497 | 7777 ft | 293 kts | 2° |
| 2026-04-30 22:39 | -4.63309 | 55.29576 | 7459 ft | 293 kts | 2° |
| 2026-04-30 22:39 | -4.57285 | 55.29807 | 6531 ft | 289 kts | 3° |
| 2026-04-30 22:40 | -4.51400 | 55.30546 | 5531 ft | 282 kts | 23° |
| 2026-04-30 22:41 | -4.47087 | 55.34270 | 4609 ft | 274 kts | 62° |
| 2026-04-30 22:41 | -4.45972 | 55.37842 | 4004 ft | 268 kts | 86° |
| 2026-04-30 22:42 | -4.48181 | 55.44292 | 3336 ft | 229 kts | 135° |
| 2026-04-30 22:43 | -4.50672 | 55.45996 | 3138 ft | 206 kts | 156° |
| 2026-04-30 22:43 | -4.53318 | 55.46376 | 2964 ft | 181 kts | 178° |
| 2026-04-30 22:44 | -4.55646 | 55.46363 | 2729 ft | 154 kts | 178° |
| 2026-04-30 22:45 | -4.59613 | 55.46346 | 1990 ft | 139 kts | 179° |
| 2026-04-30 22:45 | -4.61530 | 55.46332 | 1593 ft | 136 kts | 178° |
| 2026-04-30 22:46 | -4.63329 | 55.46729 | 1247 ft | 132 kts | 149° |
| 2026-04-30 22:47 | -4.65652 | 55.49576 | 458 ft | 132 kts | 127° |
| 2026-04-30 22:47 | -4.66689 | 55.51088 | 109 ft | 133 kts | 125° |
| 2026-04-30 22:48 | -4.67651 | 55.52492 | 27 ft | 100 kts | 124° |
| 2026-04-30 22:49 | -4.69443 | 55.55093 | 1667 ft | 186 kts | 125° |
| 2026-04-30 22:49 | -4.69736 | 55.58243 | 3134 ft | 173 kts | 58° |
| 2026-04-30 22:50 | -4.66024 | 55.62921 | 4170 ft | 248 kts | 52° |
| 2026-04-30 22:51 | -4.63428 | 55.65169 | 4500 ft | 254 kts | 19° |
| 2026-04-30 22:51 | -4.59953 | 55.65804 | 4494 ft | 256 kts | 9° |
| 2026-04-30 22:52 | -4.58188 | 55.66050 | 4478 ft | 256 kts | 9° |
| 2026-04-30 22:52 | -4.54697 | 55.65735 | 4501 ft | 258 kts | 332° |
| 2026-04-30 22:53 | -4.51695 | 55.63759 | 4492 ft | 258 kts | 325° |
| 2026-04-30 22:53 | -4.49337 | 55.61141 | 4498 ft | 257 kts | 290° |
| 2026-04-30 22:53 | -4.49076 | 55.59390 | 4498 ft | 255 kts | 263° |
| 2026-04-30 22:54 | -4.50102 | 55.56008 | 4435 ft | 250 kts | 233° |
| 2026-04-30 22:55 | -4.53040 | 55.52262 | 3951 ft | 206 kts | 233° |
| 2026-04-30 22:55 | -4.54548 | 55.50170 | 3666 ft | 171 kts | 231° |
| 2026-04-30 22:56 | -4.55887 | 55.48417 | 3273 ft | 151 kts | 229° |
| 2026-04-30 22:56 | -4.58035 | 55.46361 | 2729 ft | 142 kts | 186° |
| 2026-04-30 22:57 | -4.60048 | 55.46340 | 2085 ft | 145 kts | 177° |
| 2026-04-30 22:57 | -4.61726 | 55.46355 | 1569 ft | 144 kts | 178° |
| 2026-04-30 22:58 | -4.63497 | 55.46901 | 1192 ft | 131 kts | 143° |
| 2026-04-30 22:59 | -4.65242 | 55.49032 | 593 ft | 132 kts | 127° |
| 2026-04-30 22:59 | -4.66815 | 55.51275 | 60 ft | 133 kts | 124° |